createdAt,value
2022-09-05T00:02:03.121Z,2.08
2022-09-05T00:04:53.309Z,2.10
2022-09-05T00:07:37.485Z,1.90
2022-09-05T00:10:37.402Z,2.30
2022-09-05T00:13:16.001Z,2.20
2022-09-05T00:15:58.182Z,2.63
2022-09-05T00:22:12.875Z,1.90
2022-09-05T00:24:25.693Z,2.05
2022-09-05T00:25:06.894Z,2.10
2022-09-05T00:28:25.837Z,2.15
2022-09-05T00:31:55.646Z,2.90
2022-09-05T00:34:41.156Z,2.70
2022-09-05T00:37:16.470Z,2.78
2022-09-05T00:39:47.676Z,3.03
2022-09-05T00:42:18.410Z,2.67
2022-09-05T00:45:02.914Z,2.95
2022-09-05T00:47:33.612Z,2.80
2022-09-05T00:50:15.005Z,3.58
2022-09-05T00:53:18.724Z,3.33
2022-09-05T00:56:06.506Z,3.13
2022-09-05T00:58:56.673Z,2.90
2022-09-05T01:01:34.082Z,2.90
2022-09-05T01:04:27.726Z,3.28
2022-09-05T01:07:15.807Z,3.63
2022-09-05T01:10:03.208Z,3.08
2022-09-05T01:12:50.366Z,2.90
2022-09-05T01:15:41.474Z,2.85
2022-09-05T01:18:32.751Z,3.28
2022-09-05T01:21:17.903Z,2.90
2022-09-05T01:24:07.167Z,3.15
2022-09-05T01:27:12.158Z,3.08
2022-09-05T01:29:50.699Z,3.47
2022-09-05T01:32:50.063Z,3.60
2022-09-05T01:35:33.448Z,2.72
2022-09-05T01:38:24.529Z,3.28
2022-09-05T01:41:18.484Z,2.80
2022-09-05T01:44:05.160Z,2.42
2022-09-05T01:46:57.695Z,3.05
2022-09-05T01:49:37.219Z,2.97
2022-09-05T01:52:33.711Z,2.70
2022-09-05T01:55:22.638Z,3.00
2022-09-05T01:58:08.209Z,2.67
2022-09-05T02:00:55.962Z,2.60
2022-09-05T02:03:51.263Z,2.47
2022-09-05T02:06:52.088Z,2.72
2022-09-05T02:09:28.162Z,2.72
2022-09-05T02:12:00.637Z,2.63
2022-09-05T02:14:34.520Z,2.30
2022-09-05T02:17:50.004Z,3.00
2022-09-05T02:20:41.971Z,2.60
2022-09-05T02:23:32.668Z,2.75
2022-09-05T02:26:13.082Z,2.63
2022-09-05T02:28:48.937Z,2.60
2022-09-05T02:31:26.104Z,2.75
2022-09-05T02:33:58.776Z,2.50
2022-09-05T02:36:45.768Z,3.25
2022-09-05T02:45:06.152Z,2.67
2022-09-05T02:45:06.436Z,2.70
2022-09-05T02:45:38.821Z,2.80
2022-09-05T02:48:15.398Z,2.80
2022-09-05T02:56:40.504Z,2.70
2022-09-05T02:57:39.221Z,2.75
2022-09-05T02:57:41.360Z,2.70
2022-09-05T03:00:12.131Z,2.30
2022-09-05T03:03:12.631Z,3.00
2022-09-05T03:06:32.121Z,2.33
2022-09-05T03:09:30.061Z,2.50
2022-09-05T03:12:29.245Z,2.40
2022-09-05T03:18:21.088Z,1.95
2022-09-05T03:20:51.390Z,2.22
2022-09-05T03:23:30.791Z,2.40
2022-09-05T03:26:25.106Z,2.22
2022-09-05T03:29:22.675Z,2.58
2022-09-05T03:32:26.543Z,2.35
2022-09-05T03:35:11.957Z,2.65
2022-09-05T03:37:52.104Z,2.50
2022-09-05T03:40:28.864Z,2.53
2022-09-05T03:43:32.889Z,2.53
2022-09-05T03:46:14.716Z,2.58
2022-09-05T03:48:47.365Z,3.10
2022-09-05T03:57:20.586Z,3.40
2022-09-05T03:57:28.411Z,2.80
2022-09-05T03:58:41.995Z,2.88
2022-09-05T04:03:21.594Z,2.60
2022-09-05T04:08:18.541Z,2.78
2022-09-05T04:08:24.611Z,2.60
2022-09-05T04:10:39.289Z,2.97
2022-09-05T04:13:08.849Z,2.58
2022-09-05T04:15:41.503Z,2.85
2022-09-05T04:18:25.779Z,3.08
2022-09-05T04:21:07.134Z,2.65
2022-09-05T04:23:43.125Z,2.97
2022-09-05T04:26:15.367Z,3.13
2022-09-05T04:28:59.523Z,3.13
2022-09-05T04:31:31.113Z,2.88
2022-09-05T04:34:18.943Z,3.35
2022-09-05T04:36:45.856Z,2.55
2022-09-05T04:39:18.742Z,2.92
2022-09-05T04:42:05.845Z,2.65
2022-09-05T04:44:40.842Z,3.20
2022-09-05T04:47:20.660Z,3.10
2022-09-05T04:49:57.455Z,3.40
2022-09-05T04:52:44.767Z,2.80
2022-09-05T04:55:32.790Z,2.70
2022-09-05T04:58:07.199Z,2.83
2022-09-05T05:05:59.435Z,2.50
2022-09-05T05:06:09.418Z,2.80
2022-09-05T05:06:45.908Z,2.42
2022-09-05T05:09:44.781Z,2.90
2022-09-05T05:17:54.776Z,2.58
2022-09-05T05:18:11.155Z,2.90
2022-09-05T05:18:36.728Z,2.70
2022-09-05T05:21:15.304Z,3.00
2022-09-05T05:23:44.901Z,2.50
2022-09-05T05:26:33.482Z,2.70
2022-09-05T05:29:16.310Z,2.80
2022-09-05T05:32:05.255Z,2.30
2022-09-05T05:34:32.780Z,2.35
2022-09-05T05:37:11.581Z,2.53
2022-09-05T05:39:41.927Z,2.38
2022-09-05T05:42:20.702Z,2.20
2022-09-05T05:44:53.724Z,2.80
2022-09-05T05:47:29.891Z,2.75
2022-09-05T05:50:11.749Z,3.00
2022-09-05T05:55:52.369Z,2.90
2022-09-05T05:58:29.392Z,2.28
2022-09-05T06:01:37.907Z,2.38
2022-09-05T06:04:44.813Z,2.45
2022-09-05T06:07:46.675Z,2.42
2022-09-05T06:14:55.253Z,2.55
2022-09-05T06:15:04.723Z,2.42
2022-09-05T06:16:50.870Z,2.92
2022-09-05T06:22:05.370Z,3.00
2022-09-05T06:23:08.064Z,2.50
2022-09-05T06:26:13.013Z,2.35
2022-09-05T06:29:08.561Z,2.17
2022-09-05T06:31:56.740Z,2.50
2022-09-05T06:34:36.098Z,2.40
2022-09-05T06:37:20.382Z,2.72
2022-09-05T06:40:12.047Z,2.35
2022-09-05T06:43:02.263Z,2.75
2022-09-05T06:45:38.223Z,2.60
2022-09-05T06:48:44.406Z,2.75
2022-09-05T06:51:19.239Z,2.40
2022-09-05T06:54:04.026Z,2.40
2022-09-05T06:57:11.266Z,2.58
2022-09-05T07:00:17.515Z,2.55
2022-09-05T07:03:13.410Z,2.55
2022-09-05T07:05:45.191Z,2.97
2022-09-05T07:08:34.946Z,2.38
2022-09-05T07:11:24.046Z,2.83
2022-09-05T07:13:51.003Z,2.72
2022-09-05T07:16:38.927Z,3.00
2022-09-05T07:19:27.065Z,2.83
2022-09-05T07:22:06.338Z,2.50
2022-09-05T07:24:55.594Z,2.95
2022-09-05T07:28:26.697Z,2.70
2022-09-05T07:30:31.135Z,3.67
2022-09-05T07:32:58.335Z,2.67
2022-09-05T07:35:41.471Z,2.40
2022-09-05T07:38:52.052Z,2.28
2022-09-05T07:41:25.236Z,2.42
2022-09-05T07:43:55.610Z,2.30
2022-09-05T07:46:25.156Z,2.30
2022-09-05T07:49:04.657Z,2.50
2022-09-05T07:56:56.045Z,3.13
2022-09-05T07:57:15.594Z,3.15
2022-09-05T07:57:50.694Z,2.33
2022-09-05T08:00:29.033Z,2.78
2022-09-05T08:03:03.962Z,2.13
2022-09-05T08:05:37.468Z,2.35
2022-09-05T08:08:14.175Z,2.53
2022-09-05T08:11:23.171Z,2.40
2022-09-05T08:13:42.685Z,2.63
2022-09-05T08:16:15.927Z,2.50
2022-09-05T08:21:12.173Z,3.30
2022-09-05T08:23:57.208Z,2.45
2022-09-05T08:26:26.901Z,2.28
2022-09-05T08:29:15.155Z,2.38
2022-09-05T08:31:52.685Z,2.42
2022-09-05T08:34:44.545Z,1.90
2022-09-05T08:37:15.164Z,2.00
2022-09-05T08:39:48.540Z,1.92
2022-09-05T08:42:49.396Z,1.90
2022-09-05T08:46:42.506Z,2.13
2022-09-05T08:48:36.188Z,2.13
2022-09-05T08:51:24.802Z,2.15
2022-09-05T08:54:14.007Z,2.25
2022-09-05T08:56:52.107Z,1.92
2022-09-05T08:59:31.536Z,1.90
2022-09-05T09:02:46.889Z,2.45
2022-09-05T09:05:24.326Z,2.05
2022-09-05T09:08:15.858Z,1.92
2022-09-05T09:10:53.331Z,2.55
2022-09-05T09:13:52.340Z,2.50
2022-09-05T09:16:54.332Z,2.00
2022-09-05T09:19:29.174Z,2.08
2022-09-05T09:22:25.575Z,2.28
2022-09-05T09:25:15.814Z,1.80
2022-09-05T09:28:47.511Z,2.50
2022-09-05T09:30:43.149Z,1.70
2022-09-05T09:33:10.254Z,1.83
2022-09-05T09:35:59.728Z,1.58
2022-09-05T09:39:21.574Z,2.17
2022-09-05T09:42:03.201Z,1.90
2022-09-05T09:44:48.598Z,1.70
2022-09-05T09:47:19.229Z,1.60
2022-09-05T09:50:00.567Z,1.80
2022-09-05T09:53:20.911Z,1.83
2022-09-05T09:55:56.462Z,1.67
2022-09-05T09:58:37.521Z,1.65
2022-09-05T10:01:35.555Z,1.73
2022-09-05T10:10:26.101Z,1.65
2022-09-05T10:10:45.059Z,1.80
2022-09-05T10:11:07.143Z,1.90
2022-09-05T10:13:16.563Z,1.92
2022-09-05T10:16:26.727Z,2.50
2022-09-05T10:19:19.446Z,1.90
2022-09-05T10:21:46.519Z,2.25
2022-09-05T10:24:26.063Z,2.47
2022-09-05T10:27:14.169Z,2.00
2022-09-05T10:29:55.871Z,2.20
2022-09-05T10:35:08.727Z,2.38
2022-09-05T10:35:22.652Z,2.33
2022-09-05T10:37:54.922Z,1.80
2022-09-05T10:40:23.434Z,2.17
2022-09-05T10:43:00.464Z,2.50
2022-09-05T10:45:38.307Z,2.10
2022-09-05T10:48:25.711Z,2.50
2022-09-05T10:51:03.326Z,2.22
2022-09-05T10:53:43.968Z,2.30
2022-09-05T10:56:14.975Z,2.00
2022-09-05T11:01:48.585Z,1.88
2022-09-05T11:02:28.222Z,2.15
2022-09-05T11:04:55.535Z,2.28
2022-09-05T11:10:18.157Z,2.50
2022-09-05T11:13:10.819Z,2.10
2022-09-05T11:16:04.837Z,2.28
2022-09-05T11:18:54.673Z,2.72
2022-09-05T11:21:32.856Z,2.03
2022-09-05T11:24:38.425Z,2.08
2022-09-05T11:27:26.408Z,1.95
2022-09-05T11:30:06.899Z,2.08
2022-09-05T11:36:35.254Z,1.80
2022-09-05T11:40:00.279Z,1.77
2022-09-05T11:40:06.454Z,2.47
2022-09-05T11:42:53.869Z,1.92
2022-09-05T11:45:47.072Z,2.28
2022-09-05T11:48:20.229Z,2.40
2022-09-05T11:50:56.682Z,2.00
2022-09-05T11:53:48.069Z,1.70
2022-09-05T11:56:17.505Z,1.75
2022-09-05T11:59:09.231Z,2.22
2022-09-05T12:01:50.691Z,2.15
2022-09-05T12:05:49.121Z,2.28
2022-09-05T12:07:45.063Z,2.20
2022-09-05T12:10:45.754Z,2.67
2022-09-05T12:13:32.832Z,2.30
2022-09-05T12:16:08.559Z,2.00
2022-09-05T12:18:44.042Z,2.30
2022-09-05T12:21:28.999Z,2.20
2022-09-05T12:25:17.033Z,2.13
2022-09-05T12:27:42.270Z,1.85
2022-09-05T12:29:55.615Z,2.30
2022-09-05T12:33:58.309Z,2.03
2022-09-05T12:36:06.284Z,1.92
2022-09-05T12:40:30.214Z,2.42
2022-09-05T12:41:44.765Z,2.10
2022-09-05T12:44:39.834Z,2.20
2022-09-05T12:47:17.063Z,2.13
2022-09-05T12:50:02.906Z,2.03
2022-09-05T12:52:43.362Z,2.17
2022-09-05T12:55:28.450Z,2.08
2022-09-05T13:02:45.288Z,2.00
2022-09-05T13:03:14.058Z,1.88
2022-09-05T13:03:53.441Z,1.95
2022-09-05T13:06:31.098Z,2.20
2022-09-05T13:09:04.953Z,2.00
2022-09-05T13:14:49.487Z,2.50
2022-09-05T13:14:58.827Z,3.40
2022-09-05T13:17:16.684Z,1.70
2022-09-05T13:19:51.435Z,1.90
2022-09-05T13:22:22.673Z,1.85
2022-09-05T13:25:30.694Z,1.98
2022-09-05T13:28:06.736Z,2.20
2022-09-05T13:34:29.429Z,1.80
2022-09-05T13:38:19.751Z,1.90
2022-09-05T13:38:20.932Z,2.20
2022-09-05T13:39:11.267Z,2.15
2022-09-05T13:41:43.431Z,2.13
2022-09-05T13:44:30.243Z,2.10
2022-09-05T13:47:28.950Z,2.65
2022-09-05T13:50:31.042Z,2.08
2022-09-05T13:53:05.339Z,2.00
2022-09-05T13:55:38.126Z,1.92
2022-09-05T13:58:09.505Z,1.58
2022-09-05T14:00:38.705Z,1.75
2022-09-05T14:06:48.741Z,1.55
2022-09-05T14:09:37.074Z,1.60
2022-09-05T14:12:37.001Z,1.60
2022-09-05T14:15:16.342Z,1.83
2022-09-05T14:17:53.887Z,1.80
2022-09-05T14:21:00.947Z,1.77
2022-09-05T14:23:31.809Z,1.73
2022-09-05T14:26:01.183Z,1.63
2022-09-05T14:28:33.781Z,1.85
2022-09-05T14:33:45.376Z,1.77
2022-09-05T14:37:44.261Z,1.58
2022-09-05T14:37:49.415Z,1.58
2022-09-05T14:40:29.675Z,2.65
2022-09-05T14:43:14.181Z,1.77
2022-09-05T14:46:10.526Z,2.00
2022-09-05T14:48:46.314Z,1.50
2022-09-05T14:51:49.067Z,2.10
2022-09-05T15:01:14.738Z,1.83
2022-09-05T15:02:48.796Z,1.60
2022-09-05T15:03:03.863Z,1.73
2022-09-05T15:05:32.080Z,1.60
2022-09-05T15:08:22.691Z,1.98
2022-09-05T15:12:21.894Z,1.88
2022-09-05T15:13:51.918Z,1.90
2022-09-05T15:16:20.276Z,1.80
2022-09-05T15:18:48.222Z,1.98
2022-09-05T15:21:33.625Z,1.65
2022-09-05T15:24:24.425Z,2.22
2022-09-05T15:26:58.966Z,2.50
2022-09-05T15:29:30.368Z,2.20
2022-09-05T15:32:21.631Z,2.10
2022-09-05T15:34:49.808Z,1.55
2022-09-05T15:37:40.432Z,1.90
2022-09-05T15:40:21.982Z,1.67
2022-09-05T15:42:56.957Z,1.80
2022-09-05T15:45:35.521Z,1.80
2022-09-05T15:48:14.911Z,1.67
2022-09-05T15:50:51.419Z,1.98
2022-09-05T15:53:29.062Z,2.08
2022-09-05T15:56:02.042Z,1.90
2022-09-05T15:58:52.757Z,1.98
2022-09-05T16:01:32.531Z,1.73
2022-09-05T16:08:32.792Z,2.03
2022-09-05T16:10:34.206Z,1.90
2022-09-05T16:10:36.900Z,2.20
2022-09-05T16:12:47.487Z,2.05
2022-09-05T16:17:44.792Z,2.15
2022-09-05T16:23:17.215Z,2.00
2022-09-05T16:23:34.060Z,2.07
2022-09-05T16:24:04.954Z,2.17
2022-09-05T16:26:34.809Z,1.83
2022-09-05T16:29:05.433Z,1.85
2022-09-05T16:31:41.780Z,2.65
2022-09-05T16:34:16.191Z,2.47
2022-09-05T16:37:00.858Z,2.05
2022-09-05T16:39:37.402Z,2.45
2022-09-05T16:42:23.949Z,2.60
2022-09-05T16:45:14.465Z,2.45
2022-09-05T16:47:43.203Z,2.05
2022-09-05T16:50:24.988Z,2.17
2022-09-05T16:53:53.332Z,2.08
2022-09-05T16:56:37.550Z,2.10
2022-09-05T16:59:15.955Z,2.08
2022-09-05T17:02:06.050Z,1.90
2022-09-05T17:05:03.603Z,1.85
2022-09-05T17:07:34.797Z,1.95
2022-09-05T17:10:30.496Z,1.90
2022-09-05T17:12:57.457Z,2.00
2022-09-05T17:15:31.372Z,1.73
2022-09-05T17:18:24.218Z,2.00
2022-09-05T17:20:56.619Z,1.88
2022-09-05T17:29:16.874Z,1.92
2022-09-05T17:29:18.586Z,2.10
2022-09-05T17:32:39.761Z,1.90
2022-09-05T17:35:18.579Z,2.30
2022-09-05T17:38:11.741Z,2.08
2022-09-05T17:40:55.346Z,1.92
2022-09-05T17:43:38.676Z,2.25
2022-09-05T17:46:14.532Z,2.42
2022-09-05T17:48:58.599Z,2.22
2022-09-05T17:51:51.358Z,2.45
2022-09-05T17:54:28.951Z,2.40
2022-09-05T17:56:56.357Z,2.65
2022-09-05T17:59:25.016Z,2.67
2022-09-05T18:02:06.729Z,2.30
2022-09-05T18:04:54.304Z,2.30
2022-09-05T18:07:28.739Z,2.53
2022-09-05T18:13:13.520Z,2.38
2022-09-05T18:15:40.634Z,2.65
2022-09-05T18:19:10.320Z,2.08
2022-09-05T18:21:21.160Z,2.20
2022-09-05T18:24:03.269Z,2.13
2022-09-05T18:26:30.213Z,2.40
2022-09-05T18:29:06.113Z,2.00
2022-09-05T18:31:41.576Z,2.15
2022-09-05T18:34:21.440Z,2.10
2022-09-05T18:39:37.961Z,2.28
2022-09-05T18:42:26.272Z,2.20
2022-09-05T18:44:58.925Z,2.50
2022-09-05T18:47:39.061Z,2.33
2022-09-05T18:50:26.894Z,2.22
2022-09-05T18:53:10.216Z,3.08
2022-09-05T18:56:20.336Z,1.98
2022-09-05T18:59:10.271Z,1.95
2022-09-05T19:02:02.137Z,2.10
2022-09-05T19:04:39.613Z,2.08
2022-09-05T19:07:13.260Z,2.00
2022-09-05T19:10:34.726Z,1.88
2022-09-05T19:12:55.281Z,2.30
2022-09-05T19:18:03.627Z,2.15
2022-09-05T19:20:55.783Z,1.80
2022-09-05T19:23:30.978Z,2.17
2022-09-05T19:26:02.078Z,2.03
2022-09-05T19:36:05.348Z,1.83
2022-09-05T19:36:45.722Z,2.05
2022-09-05T19:37:08.545Z,1.95
2022-09-05T19:37:29.437Z,2.15
2022-09-05T19:47:31.417Z,2.33
2022-09-05T19:47:42.605Z,2.30
2022-09-05T19:47:47.749Z,2.15
2022-09-05T19:48:35.315Z,2.13
2022-09-05T19:51:16.495Z,2.40
2022-09-05T19:53:47.103Z,2.55
2022-09-05T19:56:14.460Z,2.42
2022-09-05T19:58:44.216Z,2.13
2022-09-05T20:01:19.464Z,2.97
2022-09-05T20:03:50.968Z,2.47
2022-09-05T20:06:30.124Z,2.55
2022-09-05T20:09:17.355Z,2.03
2022-09-05T20:11:49.801Z,2.55
2022-09-05T20:14:31.095Z,2.38
2022-09-05T20:17:28.869Z,2.40
2022-09-05T20:20:07.811Z,3.03
2022-09-05T20:22:48.709Z,2.60
2022-09-05T20:25:34.988Z,2.78
2022-09-05T20:28:12.315Z,2.90
2022-09-05T20:30:56.248Z,2.90
2022-09-05T20:33:29.112Z,2.65
2022-09-05T20:38:36.833Z,2.60
2022-09-05T20:43:14.803Z,2.83
2022-09-05T20:43:35.180Z,2.70
2022-09-05T20:44:24.897Z,2.70
2022-09-05T20:53:06.966Z,2.72
2022-09-05T20:54:22.169Z,2.75
2022-09-05T20:56:08.308Z,3.35
2022-09-05T20:58:36.998Z,3.40
2022-09-05T21:01:21.060Z,2.40
2022-09-05T21:03:56.464Z,3.10
2022-09-05T21:06:33.981Z,3.00
2022-09-05T21:09:25.046Z,3.00
2022-09-05T21:11:56.376Z,3.03
2022-09-05T21:14:24.371Z,3.20
2022-09-05T21:17:04.648Z,2.85
2022-09-05T21:19:42.129Z,3.20
2022-09-05T21:22:16.565Z,3.10
2022-09-05T21:24:46.560Z,2.40
2022-09-05T21:27:18.044Z,3.08
2022-09-05T21:29:45.569Z,2.67
2022-09-05T21:32:20.717Z,2.50
2022-09-05T21:34:53.416Z,3.20
2022-09-05T21:37:20.491Z,3.10
2022-09-05T21:39:57.187Z,3.55
2022-09-05T21:47:38.479Z,2.38
2022-09-05T21:48:06.018Z,3.42
2022-09-05T21:50:39.750Z,3.10
2022-09-05T21:55:09.326Z,2.80
2022-09-05T21:59:25.802Z,2.90
2022-09-05T21:59:27.563Z,3.35
2022-09-05T22:01:52.081Z,3.40
2022-09-05T22:04:21.936Z,3.40
2022-09-05T22:06:49.502Z,3.50
2022-09-05T22:09:20.648Z,3.35
2022-09-05T22:11:51.420Z,3.80
2022-09-05T22:14:22.909Z,2.97
2022-09-05T22:16:51.433Z,3.55
2022-09-05T22:19:37.288Z,2.60
2022-09-05T22:22:16.311Z,2.58
2022-09-05T22:24:48.590Z,3.67
2022-09-05T22:27:15.743Z,2.70
2022-09-05T22:29:43.118Z,2.90
2022-09-05T22:32:14.448Z,2.50
2022-09-05T22:34:41.498Z,2.55
2022-09-05T22:37:08.395Z,2.75
2022-09-05T22:39:37.299Z,2.85
2022-09-05T22:42:10.238Z,2.70
2022-09-05T22:44:41.450Z,2.80
2022-09-05T22:47:09.428Z,2.60
2022-09-05T22:49:36.685Z,2.20
2022-09-05T22:52:07.400Z,2.35
2022-09-05T22:54:35.231Z,2.63
2022-09-05T22:57:02.642Z,2.70
2022-09-05T22:59:29.602Z,2.80
2022-09-05T23:01:56.586Z,2.53
2022-09-05T23:04:23.902Z,2.65
2022-09-05T23:06:50.901Z,2.35
2022-09-05T23:09:17.834Z,3.00
2022-09-05T23:11:44.790Z,2.97
2022-09-05T23:14:11.753Z,3.00
2022-09-05T23:16:38.673Z,3.30
2022-09-05T23:19:05.595Z,2.40
2022-09-05T23:21:32.494Z,2.67
2022-09-05T23:23:59.483Z,3.28
2022-09-05T23:26:26.771Z,2.80
2022-09-05T23:28:53.668Z,2.63
2022-09-05T23:31:20.625Z,2.90
2022-09-05T23:33:47.606Z,2.80
2022-09-05T23:36:14.815Z,2.72
2022-09-05T23:38:42.539Z,2.78
2022-09-05T23:41:11.220Z,2.70
2022-09-05T23:43:38.192Z,3.00
2022-09-05T23:46:05.299Z,2.88
2022-09-05T23:48:32.488Z,2.60
2022-09-05T23:51:05.475Z,2.70
2022-09-05T23:53:32.430Z,2.72
2022-09-05T23:56:00.920Z,2.60
2022-09-05T23:58:29.218Z,2.67
